Time;durP1;ratioP1;P1;durP2;ratioP2;P2;SDS_P1;SDS_P2;PMS_P1;PMS_P2;Temp;Humidity;BMP_temperature;BMP_pressure;BME280_temperature;BME280_humidity;BME280_pressure;Samples;Min_cycle;Max_cycle;Signal;HPM_P1;HPM_P2
2021/06/15 00:01:44;;;;;;;12.15;6.40;;;;;;;20.72;64.94;100374.34;1776834;78;21546;-66
2021/06/15 00:04:10;;;;;;;8.78;5.90;;;;;;;20.73;65.03;100380.02;1784679;78;21104;-66
2021/06/15 00:08:17;;;;;;;8.50;6.53;;;;;;;20.82;65.02;100382.87;1792562;78;22567;-65
2021/06/15 00:10:44;;;;;;;11.18;6.78;;;;;;;20.76;65.07;100384.48;1747468;80;21094;-66
2021/06/15 00:13:10;;;;;;;10.48;6.22;;;;;;;20.73;65.21;100385.37;1765073;79;22237;-66
2021/06/15 00:15:40;;;;;;;10.63;6.47;;;;;;;20.68;65.32;100375.23;1768922;79;20907;-66
2021/06/15 00:18:07;;;;;;;9.95;6.70;;;;;;;20.65;65.38;100377.46;1766625;79;21078;-66
2021/06/15 00:20:35;;;;;;;7.80;6.10;;;;;;;20.59;65.58;100383.85;1768715;79;21082;-65
2021/06/15 00:23:01;;;;;;;8.43;5.80;;;;;;;20.57;65.85;100381.85;1766724;79;21651;-65
2021/06/15 00:25:28;;;;;;;10.88;6.75;;;;;;;20.59;66.12;100378.99;1768532;79;21110;-65
2021/06/15 00:27:54;;;;;;;10.20;6.22;;;;;;;20.57;66.53;100375.69;1765135;79;21479;-66
2021/06/15 00:30:22;;;;;;;9.20;6.28;;;;;;;20.53;66.57;100373.91;1767126;79;21157;-66
2021/06/15 00:32:50;;;;;;;15.88;6.67;;;;;;;20.50;66.68;100368.11;1767088;78;21140;-67
2021/06/15 00:35:18;;;;;;;9.60;6.47;;;;;;;20.46;66.85;100374.34;1769124;79;21098;-66
2021/06/15 00:37:46;;;;;;;9.70;6.80;;;;;;;20.43;67.19;100373.38;1767701;79;21648;-66
2021/06/15 00:40:13;;;;;;;9.68;6.37;;;;;;;20.42;67.26;100367.70;1740939;79;21148;-66
2021/06/15 00:42:39;;;;;;;8.63;6.17;;;;;;;20.42;67.34;100369.03;1766507;79;21105;-66
2021/06/15 00:45:08;;;;;;;10.00;6.05;;;;;;;20.46;67.33;100365.48;1753402;79;21070;-66
2021/06/15 00:47:36;;;;;;;9.15;5.80;;;;;;;20.48;67.32;100365.63;1767146;79;21543;-66
2021/06/15 00:50:03;;;;;;;9.33;6.62;;;;;;;20.49;67.24;100363.25;1768658;79;21166;-66
2021/06/15 00:52:31;;;;;;;8.55;6.12;;;;;;;20.49;67.36;100369.12;1761534;78;21081;-66
2021/06/15 00:54:59;;;;;;;8.00;6.15;;;;;;;20.48;67.41;100370.97;1768329;79;21618;-66
2021/06/15 00:57:26;;;;;;;9.75;6.42;;;;;;;20.49;67.34;100367.78;1768566;79;21149;-66
2021/06/15 00:59:54;;;;;;;9.43;6.58;;;;;;;20.46;67.44;100369.00;1766489;79;21117;-65
2021/06/15 01:02:23;;;;;;;7.25;5.50;;;;;;;20.46;67.53;100362.80;1768177;79;21097;-66
2021/06/15 01:04:50;;;;;;;8.93;5.92;;;;;;;20.49;67.34;100365.11;1769601;78;21113;-65
2021/06/15 01:07:54;;;;;;;10.23;6.37;;;;;;;20.51;67.31;100361.73;1737798;80;21059;-66
2021/06/15 01:10:39;;;;;;;8.90;6.03;;;;;;;20.48;67.54;100364.28;1753429;80;21103;-65
2021/06/15 01:13:14;;;;;;;8.48;6.15;;;;;;;20.43;67.70;100369.37;1752836;80;21141;-66
2021/06/15 01:16:22;;;;;;;9.60;6.90;;;;;;;20.37;67.86;100360.76;1680317;82;21095;-66
2021/06/15 01:18:53;;;;;;;9.33;6.60;;;;;;;20.29;68.07;100355.03;1755080;80;21091;-66
2021/06/15 01:21:20;;;;;;;10.18;6.45;;;;;;;20.26;68.30;100362.56;1755516;79;21082;-65
2021/06/15 01:23:52;;;;;;;9.25;6.72;;;;;;;20.23;68.45;100358.44;1757967;80;21070;-65
2021/06/15 01:26:50;;;;;;;9.98;6.90;;;;;;;20.22;68.64;100360.30;1725669;80;21156;-65
2021/06/15 01:29:35;;;;;;;9.53;6.70;;;;;;;20.18;68.84;100357.66;1756620;79;22265;-65
2021/06/15 01:32:26;;;;;;;9.18;6.97;;;;;;;20.13;68.92;100364.06;1736477;79;21060;-66
2021/06/15 01:34:52;;;;;;;8.50;6.28;;;;;;;20.09;69.02;100360.13;1754489;80;21110;-65
2021/06/15 01:37:43;;;;;;;12.35;5.83;;;;;;;20.12;68.97;100362.39;1753503;80;21096;-66
2021/06/15 01:40:15;;;;;;;7.42;5.85;;;;;;;20.17;68.81;100361.36;1756137;80;21634;-66
2021/06/15 01:42:56;;;;;;;9.03;5.65;;;;;;;20.19;68.70;100363.81;1752451;80;21123;-65
2021/06/15 01:45:39;;;;;;;9.53;6.97;;;;;;;20.23;68.66;100369.95;1738575;80;20992;-66
2021/06/15 01:48:24;;;;;;;7.70;5.60;;;;;;;20.22;68.58;100370.13;1737193;80;21097;-66
2021/06/15 01:50:51;;;;;;;10.00;5.92;;;;;;;20.17;68.63;100369.37;1738585;80;21095;-66
2021/06/15 01:53:19;;;;;;;9.78;6.35;;;;;;;20.14;68.70;100377.75;1754806;80;21086;-66
2021/06/15 01:55:53;;;;;;;9.05;6.47;;;;;;;20.16;68.64;100377.06;1699973;82;21819;-65
2021/06/15 01:58:22;;;;;;;8.68;5.80;;;;;;;20.20;68.56;100380.18;1754419;80;21403;-66
2021/06/15 02:00:49;;;;;;;8.83;6.25;;;;;;;20.25;68.48;100387.64;1743312;80;21672;-65
2021/06/15 02:03:16;;;;;;;9.78;6.28;;;;;;;20.27;68.51;100389.62;1753788;79;21181;-65
2021/06/15 02:05:58;;;;;;;9.20;6.22;;;;;;;20.27;68.61;100388.28;1757516;79;21113;-65
2021/06/15 02:08:31;;;;;;;11.43;6.55;;;;;;;20.26;68.69;100381.27;1731085;80;21760;-65
2021/06/15 02:11:00;;;;;;;10.32;6.92;;;;;;;20.26;68.71;100390.63;1748738;79;21126;-66
2021/06/15 02:13:40;;;;;;;10.10;5.85;;;;;;;20.26;68.68;100383.45;1749817;79;21058;-65
2021/06/15 02:16:23;;;;;;;7.92;6.03;;;;;;;20.31;68.40;100388.22;1701249;79;21054;-65
2021/06/15 02:18:53;;;;;;;12.90;5.87;;;;;;;20.37;68.10;100391.48;1701435;80;21138;-65
2021/06/15 02:21:22;;;;;;;12.60;7.05;;;;;;;20.42;67.93;100386.41;1727035;80;21167;-66
2021/06/15 02:23:50;;;;;;;9.80;7.28;;;;;;;20.40;67.87;100383.92;1745507;79;21098;-65
2021/06/15 02:26:19;;;;;;;10.25;7.20;;;;;;;20.38;67.73;100385.14;1749845;79;21059;-65
2021/06/15 02:28:51;;;;;;;10.08;7.95;;;;;;;20.33;67.63;100384.88;1749049;79;21140;-65
2021/06/15 02:31:22;;;;;;;9.53;7.58;;;;;;;20.28;67.58;100388.09;1719138;81;21560;-66
2021/06/15 02:33:53;;;;;;;14.65;7.60;;;;;;;20.22;67.53;100388.34;1748437;80;21940;-65
2021/06/15 02:36:32;;;;;;;8.20;6.92;;;;;;;20.20;67.53;100398.88;1750035;79;21094;-66
2021/06/15 02:39:07;;;;;;;9.80;7.08;;;;;;;20.20;67.30;100391.69;1751441;81;21402;-66
2021/06/15 02:41:36;;;;;;;9.80;7.17;;;;;;;20.19;67.30;100395.88;1747059;80;21126;-65
2021/06/15 02:44:03;;;;;;;9.05;6.85;;;;;;;20.17;67.37;100399.25;1725554;81;21145;-65
2021/06/15 02:46:33;;;;;;;8.98;7.47;;;;;;;20.16;67.47;100401.61;1750227;80;21140;-65
2021/06/15 02:49:04;;;;;;;10.10;7.08;;;;;;;20.15;67.38;100399.95;1749547;80;21113;-64
2021/06/15 02:51:33;;;;;;;9.70;7.05;;;;;;;20.18;67.33;100388.38;1726459;81;21121;-65
2021/06/15 02:54:28;;;;;;;9.80;7.35;;;;;;;20.28;67.18;100393.95;1749063;79;21047;-65
2021/06/15 02:56:56;;;;;;;8.93;7.30;;;;;;;20.35;67.02;100394.34;1751640;79;21019;-65
2021/06/15 02:59:23;;;;;;;8.35;6.62;;;;;;;20.43;67.00;100397.95;1751375;79;21153;-65
2021/06/15 03:01:53;;;;;;;8.88;6.95;;;;;;;20.47;67.13;100395.20;1751328;79;21106;-64
2021/06/15 03:04:21;;;;;;;8.18;6.62;;;;;;;20.51;66.82;100395.98;1749191;79;21476;-65
2021/06/15 03:06:48;;;;;;;10.72;7.33;;;;;;;20.53;66.58;100401.97;1749151;79;21526;-66
2021/06/15 03:09:15;;;;;;;9.38;6.92;;;;;;;20.54;66.41;100402.30;1713629;81;21137;-65
2021/06/15 03:12:04;;;;;;;9.58;6.87;;;;;;;20.57;66.24;100401.90;1692685;81;21769;-66
2021/06/15 03:14:32;;;;;;;9.08;6.90;;;;;;;20.64;65.98;100400.67;1715324;81;21117;-67
2021/06/15 03:17:04;;;;;;;9.15;7.03;;;;;;;20.66;65.71;100400.48;1703362;82;21042;-63
2021/06/15 03:20:01;;;;;;;10.10;8.00;;;;;;;20.65;65.72;100401.00;1712617;81;21113;-64
2021/06/15 03:23:06;;;;;;;9.28;7.40;;;;;;;20.64;65.74;100398.00;1672110;83;21602;-64
2021/06/15 03:25:34;;;;;;;9.63;7.90;;;;;;;20.57;65.78;100397.07;1715652;81;21079;-64
2021/06/15 03:28:10;;;;;;;9.58;6.83;;;;;;;20.51;65.96;100396.47;1682521;83;21156;-64
2021/06/15 03:30:37;;;;;;;9.58;7.00;;;;;;;20.55;65.99;100396.44;1708809;81;21351;-64
2021/06/15 03:33:09;;;;;;;9.63;7.08;;;;;;;20.67;65.79;100394.95;1712913;81;21969;-65
2021/06/15 03:35:44;;;;;;;7.62;6.00;;;;;;;20.74;65.61;100398.52;1713786;81;21093;-64
2021/06/15 03:38:09;;;;;;;10.78;7.33;;;;;;;20.77;65.58;100398.14;1694787;81;22739;-64
2021/06/15 03:40:44;;;;;;;9.55;7.83;;;;;;;20.80;65.23;100396.14;1709887;81;21678;-64
2021/06/15 03:43:12;;;;;;;13.75;7.65;;;;;;;20.82;65.23;100396.77;1714921;81;21573;-66
2021/06/15 03:45:51;;;;;;;8.55;7.15;;;;;;;20.83;65.10;100401.93;1712121;81;21114;-65
2021/06/15 03:48:17;;;;;;;11.50;6.83;;;;;;;20.85;65.04;100396.39;1713259;81;21746;-66
2021/06/15 03:50:44;;;;;;;9.28;7.40;;;;;;;20.94;64.86;100396.57;1714968;81;21169;-65
2021/06/15 03:53:11;;;;;;;8.63;7.10;;;;;;;21.06;64.85;100396.89;1694591;82;21081;-65
2021/06/15 03:55:40;;;;;;;9.70;7.53;;;;;;;21.09;64.56;100395.17;1713179;81;21143;-67
2021/06/15 03:58:07;;;;;;;10.68;7.47;;;;;;;21.13;64.39;100404.46;1693188;82;21179;-64
2021/06/15 04:00:35;;;;;;;9.13;7.05;;;;;;;21.14;64.24;100403.45;1714764;81;21157;-66
2021/06/15 04:03:04;;;;;;;9.53;7.17;;;;;;;21.17;64.34;100404.94;1683737;83;21190;-64
2021/06/15 04:05:31;;;;;;;8.83;6.75;;;;;;;21.18;63.96;100406.05;1682668;83;21065;-68
2021/06/15 04:08:01;;;;;;;9.13;6.85;;;;;;;21.21;63.98;100409.69;1704951;82;21122;-65
2021/06/15 04:10:27;;;;;;;10.03;7.20;;;;;;;21.28;63.51;100407.92;1653862;83;21182;-63
2021/06/15 04:12:55;;;;;;;8.80;7.10;;;;;;;21.31;63.52;100403.49;1686509;83;21725;-63
2021/06/15 04:15:25;;;;;;;9.83;7.10;;;;;;;21.34;63.64;100406.31;1746743;80;21115;-64
2021/06/15 04:17:52;;;;;;;8.70;6.87;;;;;;;21.38;63.40;100405.41;1698774;80;21083;-63
2021/06/15 04:20:29;;;;;;;7.95;6.17;;;;;;;21.42;63.49;100414.72;1720363;80;21147;-63
2021/06/15 04:22:56;;;;;;;10.30;6.87;;;;;;;21.44;63.34;100405.98;1748086;80;21114;-64
2021/06/15 04:25:31;;;;;;;8.55;6.30;;;;;;;21.51;63.31;100408.23;1739222;80;21155;-64
2021/06/15 04:27:58;;;;;;;;;;;;;;;21.65;62.91;100410.48;1688396;82;21941;-63
2021/06/15 04:30:25;;;;;;;11.90;8.53;;;;;;;21.71;61.98;100406.52;1684356;82;20226;-63
2021/06/15 04:32:56;;;;;;;8.88;7.78;;;;;;;21.69;62.06;100406.41;1652669;82;21146;-64
2021/06/15 04:35:34;;;;;;;12.50;7.33;;;;;;;21.70;62.03;100408.89;1699347;82;21162;-64
2021/06/15 04:38:02;;;;;;;7.78;6.03;;;;;;;21.73;62.18;100402.30;1696715;82;21568;-63
2021/06/15 04:40:34;;;;;;;9.88;7.58;;;;;;;21.76;61.79;100399.77;1698037;82;21107;-63
2021/06/15 04:43:28;;;;;;;13.30;6.72;;;;;;;21.78;61.85;100403.06;1696446;82;21109;-64
2021/06/15 04:46:03;;;;;;;9.90;7.08;;;;;;;21.80;61.84;100399.16;1696031;82;21138;-64
2021/06/15 04:48:31;;;;;;;8.08;6.28;;;;;;;21.89;61.55;100403.86;1706187;82;21081;-66
2021/06/15 04:51:01;;;;;;;7.87;6.28;;;;;;;21.99;61.30;100409.69;1703114;82;21063;-60
2021/06/15 04:53:34;;;;;;;7.62;5.87;;;;;;;22.07;61.11;100408.69;1707068;82;21176;-63
2021/06/15 04:56:01;;;;;;;10.05;6.42;;;;;;;22.10;61.20;100411.50;1679989;82;21106;-64
2021/06/15 04:58:31;;;;;;;9.00;6.90;;;;;;;22.13;60.91;100410.58;1681976;83;21185;-68
2021/06/15 05:01:00;;;;;;;7.05;5.62;;;;;;;22.13;60.43;100407.91;1742271;80;21142;-69
2021/06/15 05:03:29;;;;;;;6.92;6.03;;;;;;;22.13;60.24;100405.75;1747848;80;20932;-69
2021/06/15 05:05:56;;;;;;;7.30;5.92;;;;;;;22.13;60.35;100398.53;1750669;80;21162;-68
2021/06/15 05:08:24;;;;;;;7.80;6.15;;;;;;;22.15;60.34;100407.19;1753943;80;21055;-67
2021/06/15 05:10:52;;;;;;;8.20;6.30;;;;;;;22.16;60.22;100408.03;1757617;79;21089;-67
2021/06/15 05:13:18;;;;;;;7.83;6.35;;;;;;;22.22;59.96;100405.88;1677558;82;21404;-67
2021/06/15 05:15:45;;;;;;;8.63;7.40;;;;;;;22.35;60.11;100410.52;1757402;80;21070;-68
2021/06/15 05:18:11;;;;;;;8.93;7.20;;;;;;;22.44;60.04;100410.16;1733232;80;21249;-67
2021/06/15 05:20:37;;;;;;;7.25;6.35;;;;;;;22.50;60.17;100415.73;1756734;80;21099;-67
2021/06/15 05:23:14;;;;;;;9.10;6.90;;;;;;;22.53;59.99;100412.66;1758085;80;21149;-67
2021/06/15 05:25:43;;;;;;;9.20;6.45;;;;;;;22.57;60.02;100414.72;1760628;80;21101;-67
2021/06/15 05:28:10;;;;;;;9.15;7.42;;;;;;;22.61;60.51;100420.01;1759280;79;21320;-66
2021/06/15 05:30:36;;;;;;;8.58;6.67;;;;;;;22.63;59.73;100415.27;1756233;80;21470;-68
2021/06/15 05:33:03;;;;;;;11.08;7.50;;;;;;;22.67;60.22;100421.05;1760371;80;21152;-69
2021/06/15 05:35:30;;;;;;;12.07;7.85;;;;;;;22.76;59.70;100418.52;1757907;80;21054;-67
2021/06/15 05:37:56;;;;;;;8.78;6.35;;;;;;;22.90;59.29;100414.00;1757122;80;21137;-67
2021/06/15 05:40:23;;;;;;;11.70;7.30;;;;;;;22.97;58.88;100411.33;1759034;79;21142;-67
2021/06/15 05:42:49;;;;;;;10.40;7.33;;;;;;;22.98;58.60;100400.89;1759120;80;21078;-68
2021/06/15 05:45:17;;;;;;;8.63;6.92;;;;;;;22.99;58.95;100398.00;1756311;79;21630;-69
2021/06/15 05:47:44;;;;;;;7.08;5.90;;;;;;;23.06;58.60;100398.54;1758663;80;21441;-61
2021/06/15 05:50:14;;;;;;;7.97;5.87;;;;;;;23.10;58.64;100401.14;1722944;80;21161;-64
2021/06/15 05:52:41;;;;;;;8.05;5.58;;;;;;;23.13;58.48;100402.92;1759613;79;21082;-64
2021/06/15 05:55:10;;;;;;;6.67;4.90;;;;;;;23.17;58.39;100402.81;1732539;80;21098;-71
2021/06/15 05:57:36;;;;;;;6.83;5.00;;;;;;;23.21;58.26;100404.56;1757518;80;21423;-64
2021/06/15 06:00:06;;;;;;;8.48;4.40;;;;;;;23.25;58.35;100407.16;1758344;80;21062;-61
2021/06/15 06:02:34;;;;;;;8.58;4.70;;;;;;;23.35;57.89;100404.05;1757194;80;21051;-64
2021/06/15 06:10:12;;;;;;;6.47;4.87;;;;;;;23.64;56.08;100407.36;1716759;81;21150;-63
2021/06/15 06:12:39;;;;;;;8.80;5.28;;;;;;;23.69;56.45;100408.38;1724545;80;21130;-68
2021/06/15 06:15:08;;;;;;;6.12;4.35;;;;;;;23.73;56.44;100412.81;1747763;80;21060;-63
2021/06/15 06:17:35;;;;;;;6.12;4.37;;;;;;;23.77;56.36;100409.19;1747628;80;22266;-62
2021/06/15 06:20:04;;;;;;;7.20;4.15;;;;;;;23.83;56.13;100411.89;1727613;81;22314;-63
2021/06/15 06:22:30;;;;;;;6.25;4.25;;;;;;;23.86;56.27;100403.42;1750683;80;21594;-68
2021/06/15 06:24:57;;;;;;;6.80;4.37;;;;;;;23.89;56.20;100404.34;1749290;80;21089;-69
2021/06/15 06:27:24;;;;;;;8.70;4.33;;;;;;;23.91;55.73;100402.80;1711977;80;22334;-68
2021/06/15 06:29:50;;;;;;;6.12;4.30;;;;;;;23.93;55.77;100397.50;1748056;79;21122;-68
2021/06/15 06:32:17;;;;;;;7.67;4.33;;;;;;;23.97;55.53;100400.59;1749874;80;21097;-69
2021/06/15 06:34:43;;;;;;;8.65;4.67;;;;;;;24.01;55.61;100396.98;1750836;80;21103;-62
2021/06/15 06:37:09;;;;;;;11.38;4.97;;;;;;;24.07;55.83;100402.84;1729792;81;21111;-59
2021/06/15 06:39:36;;;;;;;6.97;4.62;;;;;;;24.13;55.90;100402.01;1748922;81;21085;-66
2021/06/15 06:42:03;;;;;;;6.33;5.00;;;;;;;24.19;55.02;100393.60;1751722;80;21055;-68
2021/06/15 06:44:30;;;;;;;7.25;5.50;;;;;;;24.25;55.48;100400.30;1750865;80;21486;-68
2021/06/15 06:46:56;;;;;;;6.97;5.15;;;;;;;24.26;55.51;100395.77;1752041;80;21083;-64
2021/06/15 06:49:23;;;;;;;8.13;5.58;;;;;;;24.30;55.58;100388.39;1749642;80;21042;-63
2021/06/15 06:51:51;;;;;;;6.03;4.58;;;;;;;24.34;55.50;100386.63;1718926;81;21118;-64
2021/06/15 06:54:17;;;;;;;6.95;5.12;;;;;;;24.43;55.48;100377.28;1748004;80;21118;-60
2021/06/15 06:56:43;;;;;;;7.58;5.37;;;;;;;24.58;54.62;100381.89;1716809;80;21130;-64
2021/06/15 06:59:10;;;;;;;8.15;5.22;;;;;;;24.69;54.67;100378.20;1750991;79;21133;-65
2021/06/15 07:01:37;;;;;;;7.03;5.37;;;;;;;24.77;54.17;100371.22;1750663;79;21480;-64
2021/06/15 07:04:04;;;;;;;7.12;5.47;;;;;;;24.84;53.98;100373.34;1751241;79;21510;-66
2021/06/15 07:06:30;;;;;;;7.70;5.03;;;;;;;24.90;54.16;100372.48;1753865;81;21030;-66
2021/06/15 07:09:00;;;;;;;6.85;4.78;;;;;;;24.93;53.37;100368.02;1744217;80;21097;-65
2021/06/15 07:11:26;;;;;;;7.70;4.65;;;;;;;24.96;53.71;100364.86;1744805;80;21079;-65
2021/06/15 07:13:53;;;;;;;7.75;5.55;;;;;;;25.02;53.26;100369.38;1713211;80;21160;-67
2021/06/15 07:16:20;;;;;;;6.87;4.30;;;;;;;25.07;52.45;100362.00;1745858;80;21126;-65
2021/06/15 07:18:46;;;;;;;7.87;4.85;;;;;;;25.11;52.76;100365.08;1716117;80;21169;-66
2021/06/15 07:21:13;;;;;;;7.60;5.12;;;;;;;25.14;53.05;100370.03;1745774;80;21134;-64
2021/06/15 07:23:40;;;;;;;8.78;4.70;;;;;;;25.17;52.97;100365.55;1716992;80;21058;-64
2021/06/15 07:26:07;;;;;;;7.33;4.97;;;;;;;25.20;52.71;100369.13;1741098;80;21101;-62
2021/06/15 07:28:34;;;;;;;7.50;4.42;;;;;;;25.21;53.29;100369.45;1741447;80;21083;-64
2021/06/15 07:31:02;;;;;;;7.17;4.35;;;;;;;25.24;52.94;100364.97;1739769;80;21548;-64
2021/06/15 07:33:29;;;;;;;5.58;3.92;;;;;;;25.29;53.04;100369.20;1738779;80;21181;-65
2021/06/15 07:35:55;;;;;;;8.83;4.78;;;;;;;25.32;52.45;100370.64;1706798;80;21161;-64
2021/06/15 07:38:22;;;;;;;6.00;4.53;;;;;;;25.36;52.89;100365.92;1743345;80;22291;-65
2021/06/15 07:40:49;;;;;;;6.62;4.42;;;;;;;25.42;52.67;100365.58;1696812;82;21116;-65
2021/06/15 07:43:17;;;;;;;8.35;4.45;;;;;;;25.49;52.97;100366.86;1679737;83;21154;-65
2021/06/15 07:45:44;;;;;;;4.87;3.58;;;;;;;25.51;51.36;100359.37;1699574;82;22384;-64
2021/06/15 07:48:11;;;;;;;6.00;4.28;;;;;;;25.53;51.17;100360.78;1677106;83;21079;-65
2021/06/15 07:50:37;;;;;;;7.28;4.35;;;;;;;25.59;51.09;100351.02;1741837;80;21109;-64
2021/06/15 07:53:06;;;;;;;6.55;4.20;;;;;;;25.64;50.79;100349.81;1698978;82;21154;-63
2021/06/15 07:55:33;;;;;;;5.72;3.47;;;;;;;25.69;51.01;100354.55;1691285;83;21332;-65
2021/06/15 07:57:59;;;;;;;6.20;4.40;;;;;;;25.73;51.44;100348.46;1668010;83;21109;-65
2021/06/15 08:00:26;;;;;;;6.40;4.72;;;;;;;25.81;50.87;100347.89;1691340;83;21708;-66
2021/06/15 08:02:53;;;;;;;6.10;4.47;;;;;;;25.87;49.98;100344.27;1703175;82;21348;-66
2021/06/15 08:05:19;;;;;;;7.12;4.70;;;;;;;25.90;49.85;100346.52;1736218;80;21160;-64
2021/06/15 08:07:51;;;;;;;6.33;4.60;;;;;;;25.95;49.45;100345.36;1740139;80;22462;-65
2021/06/15 08:10:19;;;;;;;7.67;4.72;;;;;;;25.96;48.79;100342.97;1642840;85;22602;-65
2021/06/15 08:12:47;;;;;;;6.92;4.85;;;;;;;26.01;49.44;100335.53;1735239;81;21083;-64
2021/06/15 08:15:13;;;;;;;6.37;4.90;;;;;;;26.05;49.14;100340.25;1736653;81;21153;-64
2021/06/15 08:17:41;;;;;;;5.78;4.22;;;;;;;26.08;49.70;100337.11;1736819;80;21082;-62
2021/06/15 08:20:09;;;;;;;6.45;4.65;;;;;;;26.14;49.12;100335.36;1735349;80;21386;-64
2021/06/15 08:22:36;;;;;;;6.05;4.25;;;;;;;26.19;48.42;100331.46;1737748;81;21102;-64
2021/06/15 08:25:04;;;;;;;6.70;4.40;;;;;;;26.22;48.53;100332.36;1737774;80;21067;-63
2021/06/15 08:27:31;;;;;;;8.00;4.10;;;;;;;26.28;48.19;100330.64;1737626;80;21322;-65
2021/06/15 08:29:57;;;;;;;6.28;4.17;;;;;;;26.32;48.41;100326.42;1735396;80;21095;-67
2021/06/15 08:32:25;;;;;;;5.65;4.37;;;;;;;26.35;48.61;100331.37;1737430;81;21117;-67
2021/06/15 08:34:52;;;;;;;7.15;4.03;;;;;;;26.40;49.14;100331.50;1736436;80;21126;-65
2021/06/15 08:37:19;;;;;;;5.08;3.42;;;;;;;26.45;48.46;100335.69;1720374;81;21070;-64
2021/06/15 08:39:45;;;;;;;5.85;4.05;;;;;;;26.50;48.47;100330.95;1738775;80;22440;-66
2021/06/15 08:42:14;;;;;;;5.87;4.30;;;;;;;26.54;47.46;100329.97;1734578;80;21087;-63
2021/06/15 08:44:43;;;;;;;8.03;3.92;;;;;;;26.57;48.04;100329.52;1738987;80;21057;-63
2021/06/15 08:47:14;;;;;;;5.97;3.95;;;;;;;26.64;48.70;100327.03;1736929;80;21155;-64
2021/06/15 08:49:39;;;;;;;8.20;3.90;;;;;;;26.71;48.75;100329.63;1734199;81;21091;-64
2021/06/15 08:52:05;;;;;;;9.13;4.00;;;;;;;26.79;48.83;100326.59;1738084;80;22618;-65
2021/06/15 08:54:32;;;;;;;7.35;3.60;;;;;;;26.87;48.37;100323.56;1733553;80;21163;-64
2021/06/15 08:56:58;;;;;;;5.95;4.37;;;;;;;26.91;47.80;100323.92;1734839;82;21059;-64
2021/06/15 08:59:26;;;;;;;5.37;3.87;;;;;;;26.97;48.17;100318.95;1737046;81;21121;-66
2021/06/15 09:02:02;;;;;;;5.22;3.55;;;;;;;27.04;48.41;100314.79;1739793;82;21100;-66
2021/06/15 09:04:28;;;;;;;5.90;3.80;;;;;;;27.10;48.24;100313.86;1717620;81;21121;-65
2021/06/15 09:06:56;;;;;;;6.25;3.80;;;;;;;27.21;48.43;100313.02;1739292;80;21073;-66
2021/06/15 09:09:23;;;;;;;5.08;3.83;;;;;;;27.35;48.61;100310.12;1720708;80;21123;-65
2021/06/15 09:11:59;;;;;;;6.05;4.28;;;;;;;27.41;47.66;100304.59;1683552;80;21103;-65
2021/06/15 09:14:55;;;;;;;6.72;3.70;;;;;;;27.43;47.13;100303.01;1745154;80;21090;-66
2021/06/15 09:17:30;;;;;;;14.18;3.70;;;;;;;27.48;47.90;100302.30;1742842;80;21102;-66
2021/06/15 09:20:30;;;;;;;5.47;3.35;;;;;;;27.54;47.10;100296.78;1741319;80;21051;-66
2021/06/15 09:23:06;;;;;;;5.28;3.72;;;;;;;27.59;47.00;100297.42;1742354;80;21743;-65
2021/06/15 09:25:34;;;;;;;5.37;3.30;;;;;;;27.66;47.13;100294.59;1746064;80;21131;-64
2021/06/15 09:28:20;;;;;;;6.03;3.72;;;;;;;27.72;47.50;100293.62;1715594;80;21015;-65
2021/06/15 09:31:06;;;;;;;5.75;3.87;;;;;;;27.81;47.38;100290.84;1748898;80;21091;-66
2021/06/15 09:33:44;;;;;;;5.10;3.35;;;;;;;27.89;46.48;100284.22;1746069;80;21536;-67
2021/06/15 09:36:22;;;;;;;5.10;3.30;;;;;;;27.96;46.60;100282.25;1747821;80;21152;-66
2021/06/15 09:38:59;;;;;;;5.70;3.27;;;;;;;28.07;46.80;100280.55;1715267;80;21282;-66
2021/06/15 09:41:46;;;;;;;9.48;3.37;;;;;;;28.17;45.89;100277.50;1739027;80;21546;-68
2021/06/15 09:44:29;;;;;;;10.38;4.17;;;;;;;28.29;44.98;100280.15;1744832;80;21059;-66
2021/06/15 09:47:01;;;;;;;5.47;3.75;;;;;;;28.35;43.97;100275.13;1744621;80;21114;-63
2021/06/15 09:49:34;;;;;;;5.08;3.47;;;;;;;28.37;44.51;100272.72;1742987;80;21093;-65
2021/06/15 09:52:24;;;;;;;7.95;3.90;;;;;;;28.41;44.47;100269.80;1742445;80;21937;-62
2021/06/15 09:55:04;;;;;;;5.30;3.65;;;;;;;28.42;45.46;100266.05;1744407;80;21142;-68
2021/06/15 09:57:39;;;;;;;6.67;3.30;;;;;;;28.52;45.06;100269.73;1744940;80;21082;-66
2021/06/15 10:00:17;;;;;;;5.75;3.72;;;;;;;28.60;43.81;100275.32;1744550;80;21090;-67
2021/06/15 10:02:58;;;;;;;5.65;3.50;;;;;;;28.64;43.54;100274.30;1708283;82;21104;-66
2021/06/15 10:05:36;;;;;;;6.95;3.80;;;;;;;28.59;42.95;100265.55;1683384;83;22153;-66
2021/06/15 10:08:05;;;;;;;4.75;3.25;;;;;;;28.54;43.22;100268.95;1679555;83;21530;-66
2021/06/15 10:10:41;;;;;;;5.25;3.45;;;;;;;28.57;43.27;100260.92;1692040;82;21145;-66
2021/06/15 10:13:07;;;;;;;5.35;3.20;;;;;;;28.60;43.64;100264.49;1673254;83;21102;-66
2021/06/15 10:15:35;;;;;;;7.03;3.08;;;;;;;28.63;43.04;100268.07;1661569;84;21174;-65
2021/06/15 10:18:02;;;;;;;5.70;3.22;;;;;;;28.68;43.03;100270.86;1737571;80;21659;-65
2021/06/15 10:20:31;;;;;;;4.83;2.95;;;;;;;28.81;43.42;100263.46;1710626;82;21544;-66
2021/06/15 10:22:57;;;;;;;4.67;3.00;;;;;;;28.94;43.76;100269.09;1734161;81;21560;-65
2021/06/15 10:25:28;;;;;;;4.72;2.95;;;;;;;29.06;43.38;100254.36;1739204;80;21107;-65
2021/06/15 10:27:55;;;;;;;4.75;3.17;;;;;;;29.18;42.06;100246.70;1739161;82;21108;-65
2021/06/15 10:30:32;;;;;;;4.87;3.05;;;;;;;29.21;41.90;100242.95;1736568;80;21107;-65
2021/06/15 10:33:02;;;;;;;6.10;3.22;;;;;;;29.25;42.20;100241.91;1737111;80;21797;-65
2021/06/15 10:35:48;;;;;;;4.87;3.10;;;;;;;29.23;41.87;100244.88;1736349;80;21117;-65
2021/06/15 10:38:35;;;;;;;;;;;;;;;29.19;42.20;100256.48;1674860;85;22324;-65
2021/06/15 10:41:03;;;;;;;6.45;3.55;;;;;;;29.09;41.94;100253.05;1709652;82;20547;-65
2021/06/15 10:43:42;;;;;;;6.58;3.17;;;;;;;29.01;42.42;100254.83;1676386;83;21940;-64
2021/06/15 10:46:19;;;;;;;5.62;3.35;;;;;;;29.06;41.72;100251.65;1706495;80;21133;-64
2021/06/15 10:48:48;;;;;;;4.67;2.98;;;;;;;29.13;41.69;100245.25;1737545;82;21547;-65
2021/06/15 10:51:44;;;;;;;4.78;2.90;;;;;;;29.18;41.99;100241.28;1645568;83;21363;-63
2021/06/15 10:54:27;;;;;;;6.55;3.83;;;;;;;29.26;41.63;100236.80;1677477;83;21078;-65
2021/06/15 10:57:19;;;;;;;5.42;3.50;;;;;;;29.42;42.09;100235.92;1729426;80;21163;-65
2021/06/15 11:00:16;;;;;;;4.80;3.10;;;;;;;29.48;41.61;100233.28;1676403;83;21086;-65
2021/06/15 11:03:05;;;;;;;5.17;3.10;;;;;;;29.37;42.25;100235.02;1668330;84;21150;-65
2021/06/15 11:05:53;;;;;;;5.80;2.98;;;;;;;29.17;42.11;100234.21;1710857;81;21133;-64
2021/06/15 11:08:28;;;;;;;5.00;3.08;;;;;;;28.98;42.15;100234.47;1680994;82;21132;-65
2021/06/15 11:10:59;;;;;;;7.30;3.20;;;;;;;28.77;42.57;100236.06;1655263;83;21339;-64
2021/06/15 11:13:50;;;;;;;7.33;3.10;;;;;;;28.60;44.29;100246.09;1682375;83;21831;-64
2021/06/15 11:16:46;;;;;;;7.30;3.98;;;;;;;28.44;46.66;100246.32;1681374;83;21093;-63
2021/06/15 11:19:18;;;;;;;8.35;4.42;;;;;;;28.27;49.78;100243.05;1676995;83;21114;-62
2021/06/15 11:21:57;;;;;;;6.62;4.20;;;;;;;28.05;52.49;100238.88;1679404;83;21090;-62
2021/06/15 11:24:51;;;;;;;6.72;3.98;;;;;;;27.87;55.06;100231.73;1640128;85;21137;-63
2021/06/15 11:27:25;;;;;;;6.42;4.40;;;;;;;27.70;55.70;100222.22;1645082;85;21173;-63
2021/06/15 11:29:57;;;;;;;8.28;4.85;;;;;;;27.53;56.09;100217.30;1637606;85;21086;-65
2021/06/15 11:32:30;;;;;;;8.60;4.78;;;;;;;27.43;58.07;100213.31;1656606;83;21153;-65
2021/06/15 11:35:02;;;;;;;7.20;3.87;;;;;;;27.40;58.22;100207.56;1680368;83;22673;-66
2021/06/15 11:37:42;;;;;;;9.13;4.42;;;;;;;27.41;57.11;100205.16;1647266;83;22285;-66
2021/06/15 11:40:31;;;;;;;7.75;4.58;;;;;;;27.40;56.19;100192.20;1680280;83;21120;-66
2021/06/15 11:43:12;;;;;;;5.42;3.55;;;;;;;27.37;56.48;100185.07;1639864;85;21110;-67
2021/06/15 11:45:43;;;;;;;8.35;4.80;;;;;;;27.39;55.23;100184.33;1680127;83;21598;-67
2021/06/15 11:48:18;;;;;;;9.55;4.37;;;;;;;27.45;55.57;100175.78;1680165;83;21162;-66
2021/06/15 11:50:55;;;;;;;8.83;4.35;;;;;;;27.61;55.99;100177.73;1638225;85;21819;-69
2021/06/15 11:53:22;;;;;;;9.43;5.78;;;;;;;27.82;54.45;100181.62;1639403;85;21089;-72